Time;durP1;ratioP1;P1;durP2;ratioP2;P2;SDS_P1;SDS_P2;PMS_P1;PMS_P2;Temp;Humidity;BMP_temperature;BMP_pressure;BME280_temperature;BME280_humidity;BME280_pressure;Samples;Min_cycle;Max_cycle;Signal;HPM_P1;HPM_P2
2024/02/19 00:01:29;;;;;;;7.07;6.50;;;;;;;8.32;100.00;100250.94;5095057;28;20230;-78
2024/02/19 00:03:55;;;;;;;6.50;6.00;;;;;;;8.47;100.00;100262.91;5095504;28;20235;-79
2024/02/19 00:06:22;;;;;;;6.80;6.30;;;;;;;8.47;100.00;100268.09;5094717;28;20220;-78
2024/02/19 00:08:50;;;;;;;6.60;6.10;;;;;;;8.68;100.00;100277.38;5093248;28;20673;-76
2024/02/19 00:11:17;;;;;;;6.10;5.70;;;;;;;8.92;100.00;100291.78;5093772;28;20661;-79
2024/02/19 00:13:44;;;;;;;7.17;6.63;;;;;;;8.65;100.00;100310.38;5100006;28;20297;-78
2024/02/19 00:16:10;;;;;;;7.23;6.63;;;;;;;8.87;100.00;100319.59;5093976;28;20287;-78
2024/02/19 00:18:37;;;;;;;7.23;6.63;;;;;;;8.72;100.00;100325.00;5093926;28;20616;-78
2024/02/19 00:21:03;;;;;;;6.73;6.23;;;;;;;8.25;100.00;100324.69;5095084;28;20234;-79
2024/02/19 00:23:33;;;;;;;7.83;7.13;;;;;;;8.34;100.00;100332.41;5094784;28;20296;-78
2024/02/19 00:26:01;;;;;;;8.70;8.00;;;;;;;8.24;100.00;100324.72;5094620;28;20224;-79
2024/02/19 00:28:28;;;;;;;7.27;6.67;;;;;;;8.12;100.00;100326.56;5094657;28;20294;-79
2024/02/19 00:30:54;;;;;;;7.30;6.67;;;;;;;8.48;100.00;100316.66;5094323;28;20203;-78
2024/02/19 00:33:21;;;;;;;7.60;5.93;;;;;;;8.32;100.00;100331.56;5094546;28;20778;-78
2024/02/19 00:35:48;;;;;;;6.43;5.93;;;;;;;8.33;100.00;100335.00;5094640;28;20206;-79
2024/02/19 00:38:14;;;;;;;5.27;4.87;;;;;;;8.47;100.00;100335.75;5093000;28;20620;-76
2024/02/19 00:40:41;;;;;;;4.23;3.93;;;;;;;8.31;100.00;100355.84;5093437;28;20226;-78
2024/02/19 00:43:09;;;;;;;3.00;2.80;;;;;;;8.15;100.00;100372.47;5093709;28;20277;-78
2024/02/19 00:45:35;;;;;;;2.30;2.20;;;;;;;8.01;100.00;100377.81;5094059;28;20231;-79
2024/02/19 00:48:02;;;;;;;2.40;2.20;;;;;;;7.93;100.00;100377.03;5087657;28;20204;-78
2024/02/19 00:50:29;;;;;;;1.77;1.67;;;;;;;7.80;100.00;100368.47;5093542;28;20204;-78
2024/02/19 00:52:55;;;;;;;1.30;1.30;;;;;;;7.82;100.00;100384.91;5094440;28;20281;-78
2024/02/19 00:55:21;;;;;;;1.73;1.63;;;;;;;7.78;100.00;100398.78;5094289;28;20207;-77
2024/02/19 00:57:48;;;;;;;1.30;1.20;;;;;;;7.78;100.00;100418.72;5094163;28;20214;-78
2024/02/19 01:00:16;;;;;;;1.27;1.10;;;;;;;8.02;100.00;100421.09;5094339;28;20673;-78
2024/02/19 01:02:42;;;;;;;1.03;1.03;;;;;;;8.03;100.00;100440.19;5087979;28;20722;-78
2024/02/19 01:05:09;;;;;;;1.63;1.40;;;;;;;7.93;100.00;100439.41;5098308;28;20200;-78
2024/02/19 01:07:35;;;;;;;1.33;1.23;;;;;;;7.76;100.00;100422.19;5097601;28;20232;-79
2024/02/19 01:10:01;;;;;;;1.77;1.67;;;;;;;7.54;100.00;100402.44;5098068;28;20229;-78
2024/02/19 01:12:28;;;;;;;2.00;1.90;;;;;;;7.75;100.00;100385.84;5089431;28;20277;-79
2024/02/19 01:14:54;;;;;;;1.90;1.80;;;;;;;7.70;100.00;100391.06;5098677;28;20669;-78
2024/02/19 01:17:22;;;;;;;1.70;1.60;;;;;;;7.62;100.00;100386.81;5096923;28;20623;-78
2024/02/19 01:19:48;;;;;;;3.30;1.50;;;;;;;7.62;100.00;100387.66;5097976;28;20612;-78
2024/02/19 01:22:14;;;;;;;1.57;1.47;;;;;;;7.60;100.00;100368.63;5097325;28;20669;-78
2024/02/19 01:24:41;;;;;;;1.70;1.60;;;;;;;7.61;100.00;100370.38;5097910;28;20739;-78
2024/02/19 01:27:07;;;;;;;2.13;1.93;;;;;;;7.46;100.00;100366.13;5096357;28;20219;-79
2024/02/19 01:29:34;;;;;;;2.50;2.30;;;;;;;7.67;100.00;100359.03;5097833;28;20208;-78
2024/02/19 01:32:00;;;;;;;2.47;2.27;;;;;;;7.73;100.00;100358.97;5097397;28;20208;-78
2024/02/19 01:34:29;;;;;;;3.10;2.90;;;;;;;7.90;100.00;100354.50;5097482;28;20261;-77
2024/02/19 01:36:57;;;;;;;3.33;2.40;;;;;;;7.95;100.00;100359.69;5097467;28;20666;-79
2024/02/19 01:39:23;;;;;;;1.83;1.73;;;;;;;7.91;100.00;100368.38;5098236;28;20234;-79
2024/02/19 01:41:50;;;;;;;2.30;1.47;;;;;;;8.03;100.00;100376.06;5097691;28;20616;-79
2024/02/19 01:44:17;;;;;;;1.17;1.13;;;;;;;7.77;100.00;100381.50;5097794;28;20566;-78
2024/02/19 01:46:45;;;;;;;1.00;1.00;;;;;;;7.73;100.00;100377.16;5096718;28;20224;-79
2024/02/19 01:49:12;;;;;;;0.80;0.80;;;;;;;7.65;100.00;100385.06;5097484;28;20735;-78
2024/02/19 01:51:41;;;;;;;0.90;0.90;;;;;;;7.71;100.00;100399.72;5097184;28;20200;-79
2024/02/19 01:54:09;;;;;;;1.10;1.10;;;;;;;7.86;100.00;100393.53;5097306;28;20229;-79
2024/02/19 01:56:36;;;;;;;1.20;1.20;;;;;;;7.83;100.00;100393.56;5096926;28;20231;-79
2024/02/19 01:59:03;;;;;;;1.27;0.97;;;;;;;7.90;100.00;100411.69;5096999;28;20211;-79
2024/02/19 02:01:30;;;;;;;1.70;1.17;;;;;;;7.98;100.00;100413.38;5096508;28;20269;-79
2024/02/19 02:03:57;;;;;;;0.97;0.97;;;;;;;7.83;100.00;100425.63;5097005;28;20243;-79
2024/02/19 02:06:24;;;;;;;0.70;0.70;;;;;;;7.61;100.00;100430.13;5095978;28;20261;-79
2024/02/19 02:08:52;;;;;;;0.60;0.60;;;;;;;7.67;100.00;100432.66;5096407;28;20204;-79
2024/02/19 02:11:18;;;;;;;0.60;0.60;;;;;;;7.91;100.00;100454.16;5097412;28;20212;-79
2024/02/19 02:13:45;;;;;;;0.80;0.80;;;;;;;8.00;100.00;100472.25;5096273;28;20228;-79
2024/02/19 02:16:11;;;;;;;0.70;0.70;;;;;;;8.01;100.00;100489.59;5095723;28;20226;-79
2024/02/19 02:18:38;;;;;;;0.60;0.60;;;;;;;7.90;100.00;100502.66;5097490;28;20562;-79
2024/02/19 02:21:04;;;;;;;1.03;0.60;;;;;;;7.78;100.00;100507.94;5096913;28;20745;-78
2024/02/19 02:23:31;;;;;;;0.40;0.40;;;;;;;7.82;100.00;100509.63;5096613;28;20647;-78
2024/02/19 02:25:59;;;;;;;0.30;0.30;;;;;;;7.83;100.00;100520.88;5096400;28;20219;-79
2024/02/19 02:28:27;;;;;;;0.20;0.20;;;;;;;7.83;100.00;100531.28;5096627;28;20211;-79
2024/02/19 02:30:53;;;;;;;0.43;0.27;;;;;;;7.72;100.00;100537.41;5095279;28;20236;-78
2024/02/19 02:33:19;;;;;;;0.30;0.30;;;;;;;7.76;100.00;100551.25;5095593;28;20222;-79
2024/02/19 02:35:46;;;;;;;0.33;0.30;;;;;;;7.91;100.00;100558.09;5097093;28;20211;-78
2024/02/19 02:38:12;;;;;;;0.33;0.33;;;;;;;7.94;100.00;100576.25;5088015;28;20314;-79
2024/02/19 02:40:39;;;;;;;0.50;0.40;;;;;;;7.91;100.00;100600.56;5097976;28;20277;-79
2024/02/19 02:43:05;;;;;;;0.47;0.30;;;;;;;7.61;100.00;100600.69;5097838;28;20713;-80
2024/02/19 02:45:33;;;;;;;0.40;0.40;;;;;;;7.70;100.00;100585.91;5096810;28;20208;-79
2024/02/19 02:47:59;;;;;;;0.77;0.60;;;;;;;7.46;100.00;100580.84;5096224;28;20293;-79
2024/02/19 02:50:26;;;;;;;0.73;0.73;;;;;;;7.23;100.00;100588.69;5096845;28;20263;-79
2024/02/19 02:52:52;;;;;;;0.90;0.90;;;;;;;7.25;100.00;100563.59;5096679;28;20232;-79
2024/02/19 02:55:18;;;;;;;1.10;0.93;;;;;;;7.64;100.00;100551.31;5096619;28;20208;-78
2024/02/19 02:57:45;;;;;;;1.80;0.90;;;;;;;7.43;100.00;100571.31;5095558;28;20204;-79
2024/02/19 03:00:12;;;;;;;0.87;0.87;;;;;;;7.42;100.00;100560.94;5096015;28;20211;-79
2024/02/19 03:02:40;;;;;;;0.70;0.70;;;;;;;7.43;100.00;100557.47;5095437;28;20226;-79
2024/02/19 03:05:07;;;;;;;1.83;0.50;;;;;;;7.30;100.00;100560.13;5095982;28;20232;-79
2024/02/19 03:07:33;;;;;;;0.60;0.60;;;;;;;7.32;100.00;100555.78;5095351;28;20219;-79
2024/02/19 03:10:00;;;;;;;0.70;0.70;;;;;;;7.15;100.00;100563.66;5095495;28;20249;-78
2024/02/19 03:12:26;;;;;;;0.60;0.60;;;;;;;7.19;100.00;100555.81;5094890;28;20230;-78
2024/02/19 03:14:52;;;;;;;1.23;0.60;;;;;;;7.26;100.00;100586.09;5095899;28;20208;-79
2024/02/19 03:17:19;;;;;;;2.77;0.80;;;;;;;7.28;100.00;100582.63;5095088;28;20196;-79
2024/02/19 03:19:46;;;;;;;1.30;0.80;;;;;;;7.10;100.00;100596.53;5095407;28;20214;-78
2024/02/19 03:22:13;;;;;;;2.00;1.10;;;;;;;7.10;100.00;100598.25;5095694;28;20200;-78
2024/02/19 03:24:40;;;;;;;1.00;0.57;;;;;;;7.25;100.00;100602.53;5095146;28;20197;-78
2024/02/19 03:27:06;;;;;;;1.70;1.17;;;;;;;7.16;100.00;100593.06;5094963;28;20732;-78
2024/02/19 03:29:33;;;;;;;1.67;0.80;;;;;;;6.99;100.00;100589.63;5095513;28;20269;-78
2024/02/19 03:31:59;;;;;;;1.57;0.87;;;;;;;7.02;100.00;100587.91;5094936;28;20204;-79
2024/02/19 03:34:26;;;;;;;2.00;0.80;;;;;;;6.95;100.00;100588.75;5095486;28;20234;-78
2024/02/19 03:36:53;;;;;;;1.43;0.50;;;;;;;6.91;100.00;100592.22;5094639;28;20204;-79
2024/02/19 03:39:20;;;;;;;1.50;0.63;;;;;;;6.93;100.00;100599.13;5095164;28;20204;-78
2024/02/19 03:41:46;;;;;;;0.83;0.50;;;;;;;7.05;100.00;100624.22;5094663;28;20664;-79
2024/02/19 03:44:12;;;;;;;0.50;0.50;;;;;;;6.95;100.00;100648.44;5095208;28;20226;-79
2024/02/19 03:46:39;;;;;;;0.83;0.40;;;;;;;6.95;100.00;100664.03;5094343;28;20230;-79
2024/02/19 03:49:05;;;;;;;0.83;0.50;;;;;;;6.99;100.00;100672.66;5095859;28;20312;-78
2024/02/19 03:51:32;;;;;;;1.17;1.10;;;;;;;7.05;100.00;100699.47;5095416;28;20277;-78
2024/02/19 03:53:59;;;;;;;1.07;0.90;;;;;;;7.16;100.00;100702.09;5094648;28;20293;-78
2024/02/19 03:56:26;;;;;;;1.20;0.70;;;;;;;6.79;100.00;100706.41;5094369;28;20211;-78
2024/02/19 03:58:52;;;;;;;2.07;0.73;;;;;;;6.76;100.00;100702.09;5086199;28;20287;-78
2024/02/19 04:01:19;;;;;;;1.30;0.80;;;;;;;6.88;100.00;100690.84;5094288;28;20217;-78
2024/02/19 04:03:45;;;;;;;1.50;1.10;;;;;;;7.05;100.00;100696.03;5095048;28;20583;-79
2024/02/19 04:06:11;;;;;;;1.40;0.80;;;;;;;6.90;100.00;100694.31;5095071;28;20209;-79
2024/02/19 04:08:38;;;;;;;1.10;0.90;;;;;;;6.85;100.00;100704.66;5094973;28;20686;-79
2024/02/19 04:11:06;;;;;;;0.97;0.90;;;;;;;6.84;100.00;100705.53;5095236;28;20211;-79
2024/02/19 04:13:32;;;;;;;0.93;0.77;;;;;;;6.79;100.00;100716.78;5094351;28;20235;-79
2024/02/19 04:15:59;;;;;;;0.80;0.77;;;;;;;6.94;100.00;100715.06;5094725;28;20642;-79
2024/02/19 04:18:25;;;;;;;1.30;0.50;;;;;;;6.85;100.00;100712.44;5094915;28;20268;-78
2024/02/19 04:20:51;;;;;;;0.60;0.60;;;;;;;6.84;100.00;100730.59;5094671;28;20211;-79
2024/02/19 04:23:18;;;;;;;0.87;0.43;;;;;;;6.69;100.00;100721.94;5094015;28;20221;-79
2024/02/19 04:25:44;;;;;;;0.83;0.30;;;;;;;6.57;100.00;100724.53;5093795;28;20256;-79
2024/02/19 04:28:12;;;;;;;1.10;0.50;;;;;;;6.75;100.00;100726.28;5093615;28;20229;-79
2024/02/19 04:30:38;;;;;;;0.37;0.37;;;;;;;6.59;100.00;100738.34;5094836;28;20253;-79
2024/02/19 04:33:05;;;;;;;1.23;0.40;;;;;;;6.72;100.00;100729.75;5093851;28;20252;-78
2024/02/19 04:35:31;;;;;;;1.40;0.87;;;;;;;6.79;100.00;100740.13;5086742;28;20378;-79
2024/02/19 04:37:58;;;;;;;1.60;1.00;;;;;;;6.59;100.00;100747.88;5084592;28;20198;-78
2024/02/19 04:40:24;;;;;;;2.27;0.90;;;;;;;6.51;100.00;100732.28;5094051;28;20218;-78
2024/02/19 04:42:50;;;;;;;2.30;0.80;;;;;;;6.58;100.00;100739.25;5093820;28;20231;-79
2024/02/19 04:45:18;;;;;;;0.77;0.77;;;;;;;6.63;100.00;100740.09;5094262;28;20255;-79
2024/02/19 04:47:44;;;;;;;0.70;0.70;;;;;;;6.64;100.00;100743.53;5093217;28;20226;-79
2024/02/19 04:50:11;;;;;;;0.97;0.97;;;;;;;6.59;100.00;100742.69;5094698;28;20257;-79
2024/02/19 04:52:37;;;;;;;1.37;1.10;;;;;;;6.40;100.00;100753.00;5093647;28;20226;-79
2024/02/19 04:55:04;;;;;;;1.23;0.80;;;;;;;6.49;100.00;100745.25;5094191;28;20206;-79
2024/02/19 04:57:30;;;;;;;0.60;0.60;;;;;;;6.67;100.00;100756.53;5093698;28;20202;-79
2024/02/19 04:59:57;;;;;;;1.70;0.50;;;;;;;6.58;100.00;100778.16;5094356;28;20207;-77
2024/02/19 05:02:24;;;;;;;1.63;0.60;;;;;;;6.76;100.00;100764.34;5093646;28;20226;-78
2024/02/19 05:04:51;;;;;;;1.00;0.70;;;;;;;6.69;100.00;100770.38;5093819;28;20260;-79
2024/02/19 05:07:17;;;;;;;0.90;0.90;;;;;;;6.45;100.00;100772.03;5093496;28;20222;-79
2024/02/19 05:09:43;;;;;;;2.00;0.80;;;;;;;6.47;100.00;100759.94;5094062;28;20251;-79
2024/02/19 05:12:10;;;;;;;2.97;1.00;;;;;;;6.54;100.00;100759.09;5093981;28;20206;-79
2024/02/19 05:14:36;;;;;;;1.40;0.87;;;;;;;6.59;100.00;100761.69;5086384;28;20267;-79
2024/02/19 05:17:03;;;;;;;1.77;0.87;;;;;;;6.45;100.00;100763.41;5093234;28;20609;-79
2024/02/19 05:19:31;;;;;;;1.87;1.10;;;;;;;6.53;100.00;100761.69;5102012;28;20294;-78
2024/02/19 05:21:58;;;;;;;1.23;0.80;;;;;;;6.51;100.00;100755.63;5094629;28;20209;-79
2024/02/19 05:24:24;;;;;;;1.17;0.90;;;;;;;6.55;100.00;100757.38;5093110;28;20734;-77
2024/02/19 05:26:51;;;;;;;1.37;0.90;;;;;;;6.68;100.00;100759.16;5092397;28;20264;-77
2024/02/19 05:29:17;;;;;;;1.40;0.70;;;;;;;6.67;100.00;100764.31;5092474;28;20226;-78
2024/02/19 05:31:44;;;;;;;0.93;0.60;;;;;;;6.68;100.00;100772.13;5091466;28;20721;-78
2024/02/19 05:34:10;;;;;;;0.43;0.43;;;;;;;6.67;100.00;100788.53;5091639;28;20581;-77
2024/02/19 05:36:38;;;;;;;0.60;0.60;;;;;;;6.73;100.00;100790.28;5092047;28;20267;-77
2024/02/19 05:39:04;;;;;;;0.80;0.80;;;;;;;6.65;100.00;100803.22;5085366;28;20195;-77
2024/02/19 05:41:31;;;;;;;1.47;0.70;;;;;;;6.73;100.00;100811.88;5092200;28;20199;-77
2024/02/19 05:43:57;;;;;;;0.63;0.60;;;;;;;6.93;100.00;100816.25;5090156;28;20226;-77
2024/02/19 05:46:23;;;;;;;1.00;0.70;;;;;;;6.83;100.00;100822.31;5092195;28;20223;-77
2024/02/19 05:48:50;;;;;;;0.57;0.53;;;;;;;6.66;100.00;100823.13;5094338;28;20229;-77
2024/02/19 05:51:16;;;;;;;0.93;0.80;;;;;;;6.82;100.00;100807.56;5096077;28;20203;-77
2024/02/19 05:53:44;;;;;;;0.97;0.87;;;;;;;6.71;100.00;100807.56;5095398;28;20221;-77
2024/02/19 05:56:11;;;;;;;1.23;0.97;;;;;;;6.80;100.00;100807.59;5095610;28;20666;-78
2024/02/19 05:58:39;;;;;;;1.27;0.90;;;;;;;6.86;100.00;100814.53;5096775;28;20202;-77
2024/02/19 06:01:06;;;;;;;1.27;0.90;;;;;;;6.87;100.00;100821.44;5101089;28;20226;-77
2024/02/19 06:03:34;;;;;;;1.50;0.90;;;;;;;6.94;100.00;100830.97;5101217;28;20656;-76
2024/02/19 06:06:00;;;;;;;1.10;1.00;;;;;;;6.95;100.00;100843.09;5100069;28;20254;-77
2024/02/19 06:08:26;;;;;;;1.20;1.10;;;;;;;6.91;100.00;100864.69;5100366;28;20224;-76
2024/02/19 06:10:55;;;;;;;1.07;0.97;;;;;;;7.02;100.00;100872.53;5099858;28;20203;-76
2024/02/19 06:13:21;;;;;;;1.40;1.30;;;;;;;7.03;100.00;100880.28;5095678;28;20627;-77
2024/02/19 06:15:48;;;;;;;1.37;1.10;;;;;;;6.98;100.00;100887.22;5094615;28;20204;-77
2024/02/19 06:18:14;;;;;;;1.27;1.17;;;;;;;7.07;100.00;100907.13;5094663;28;20199;-77
2024/02/19 06:20:41;;;;;;;1.43;1.33;;;;;;;6.97;100.00;100895.84;5095501;28;20202;-77
2024/02/19 06:23:07;;;;;;;2.90;1.47;;;;;;;6.95;100.00;100889.78;5086757;28;20273;-77
2024/02/19 06:25:33;;;;;;;2.03;1.80;;;;;;;7.13;100.00;100888.97;5094842;28;20260;-77
2024/02/19 06:28:02;;;;;;;3.13;1.47;;;;;;;7.17;100.00;100875.13;5094820;28;20716;-77
2024/02/19 06:30:29;;;;;;;1.50;1.40;;;;;;;7.17;100.00;100890.72;5095042;28;20679;-77
2024/02/19 06:32:55;;;;;;;1.90;1.20;;;;;;;7.06;100.00;100900.22;5095434;28;20657;-79
2024/02/19 06:35:21;;;;;;;1.20;1.00;;;;;;;6.96;100.00;100902.78;5092249;28;20265;-77
2024/02/19 06:37:49;;;;;;;1.10;0.90;;;;;;;7.32;100.00;100908.06;5095361;28;20200;-77
2024/02/19 06:40:15;;;;;;;1.30;1.10;;;;;;;7.29;100.00;100947.88;5094915;28;20261;-77
2024/02/19 06:42:43;;;;;;;1.33;1.17;;;;;;;7.29;100.00;100960.84;5095542;28;20216;-78
2024/02/19 06:45:11;;;;;;;1.40;1.30;;;;;;;7.39;100.00;100981.66;5088012;28;20204;-79
2024/02/19 06:47:38;;;;;;;1.33;1.23;;;;;;;7.37;100.00;100986.84;5092566;28;20273;-78
2024/02/19 06:50:04;;;;;;;1.60;1.10;;;;;;;7.39;100.00;100994.66;5094308;28;20273;-77
2024/02/19 06:52:31;;;;;;;1.10;1.00;;;;;;;7.52;100.00;100991.22;5095483;28;20327;-76
2024/02/19 06:54:57;;;;;;;2.20;1.30;;;;;;;7.43;100.00;101009.38;5093306;28;20612;-76
2024/02/19 06:57:24;;;;;;;1.20;1.10;;;;;;;7.39;100.00;101005.88;5093875;28;20203;-78
2024/02/19 06:59:50;;;;;;;1.37;0.90;;;;;;;7.54;100.00;101011.13;5094001;28;20611;-79
2024/02/19 07:02:18;;;;;;;1.10;1.00;;;;;;;7.34;100.00;101012.81;5092731;28;20545;-77
2024/02/19 07:04:45;;;;;;;0.80;0.80;;;;;;;7.24;100.00;101011.91;5094099;28;20673;-76
2024/02/19 07:07:11;;;;;;;1.27;1.17;;;;;;;7.20;100.00;101006.72;5085853;28;20663;-77
2024/02/19 07:09:40;;;;;;;1.13;1.03;;;;;;;7.40;100.00;101004.19;5095824;28;20863;-77
2024/02/19 07:12:06;;;;;;;1.90;1.67;;;;;;;7.21;100.00;100995.44;5096260;28;20204;-76
2024/02/19 07:14:33;;;;;;;2.13;1.93;;;;;;;7.10;100.00;100993.69;5094946;28;20200;-76
2024/02/19 07:16:59;;;;;;;1.20;1.10;;;;;;;7.03;100.00;100975.47;5092384;28;20253;-76
2024/02/19 07:19:27;;;;;;;1.73;1.33;;;;;;;7.25;100.00;100961.69;5094006;28;20200;-77
2024/02/19 07:21:53;;;;;;;1.90;1.00;;;;;;;7.22;100.00;100985.06;5093106;28;20682;-76
2024/02/19 07:24:19;;;;;;;1.10;1.00;;;;;;;7.24;100.00;100983.34;5093231;28;20232;-76
2024/02/19 07:26:46;;;;;;;0.80;0.80;;;;;;;7.26;100.00;100994.63;5093894;28;20208;-77
2024/02/19 07:29:12;;;;;;;0.77;0.77;;;;;;;7.41;100.00;100988.59;5091446;28;20261;-77
2024/02/19 07:31:38;;;;;;;1.07;0.97;;;;;;;7.39;100.00;100995.50;5092356;28;20204;-76
2024/02/19 07:34:04;;;;;;;0.93;0.93;;;;;;;7.40;100.00;100981.66;5093647;28;20228;-77
2024/02/19 07:36:32;;;;;;;0.80;0.80;;;;;;;7.31;100.00;100994.63;5093593;28;20233;-76
2024/02/19 07:38:58;;;;;;;1.23;1.00;;;;;;;7.43;100.00;100989.44;5093264;28;20211;-78
2024/02/19 07:41:25;;;;;;;0.80;0.80;;;;;;;7.32;100.00;101010.22;5093335;28;20204;-76
2024/02/19 07:43:51;;;;;;;1.40;1.10;;;;;;;7.48;100.00;101015.47;5093186;28;20224;-78
2024/02/19 07:46:20;;;;;;;1.20;0.87;;;;;;;7.28;100.00;101008.47;5092498;28;21073;-76
2024/02/19 07:48:47;;;;;;;3.70;1.10;;;;;;;7.51;100.00;100998.16;5092947;28;20318;-77
2024/02/19 07:51:14;;;;;;;1.20;1.10;;;;;;;7.39;100.00;100997.25;5090108;28;20228;-77
2024/02/19 07:53:42;;;;;;;0.90;0.90;;;;;;;7.56;100.00;100987.78;5088605;28;20227;-77
2024/02/19 07:56:09;;;;;;;1.40;1.30;;;;;;;7.52;100.00;101004.22;5092160;28;20839;-77
2024/02/19 07:58:35;;;;;;;1.23;1.13;;;;;;;7.60;100.00;101010.28;5092964;28;20626;-77
2024/02/19 08:01:03;;;;;;;1.33;1.23;;;;;;;7.58;100.00;101014.63;5093811;28;20234;-79
2024/02/19 08:03:29;;;;;;;1.83;1.73;;;;;;;7.76;100.00;101022.44;5094533;28;20216;-78
2024/02/19 08:05:56;;;;;;;2.33;2.00;;;;;;;7.66;100.00;101025.03;5093970;28;20620;-79
2024/02/19 08:08:23;;;;;;;2.43;1.93;;;;;;;7.59;100.00;101031.97;5094595;28;20228;-78
2024/02/19 08:10:50;;;;;;;2.03;1.87;;;;;;;7.73;100.00;101027.66;5093889;28;20207;-78
2024/02/19 08:13:17;;;;;;;3.10;1.60;;;;;;;7.70;100.00;101035.44;5093602;28;20227;-79
2024/02/19 08:15:43;;;;;;;1.90;1.70;;;;;;;7.79;100.00;101046.72;5093060;28;20257;-77
2024/02/19 08:18:10;;;;;;;1.37;1.27;;;;;;;7.84;100.00;101058.00;5093212;28;20208;-78
2024/02/19 08:20:38;;;;;;;1.40;1.30;;;;;;;7.90;100.00;101061.47;5094183;28;20204;-79
2024/02/19 08:23:05;;;;;;;1.40;1.30;;;;;;;7.90;100.00;101069.25;5092990;28;20231;-78
2024/02/19 08:25:31;;;;;;;1.90;1.80;;;;;;;8.04;100.00;101071.88;5095973;28;20222;-79
2024/02/19 08:27:59;;;;;;;2.70;1.57;;;;;;;7.96;100.00;101086.59;5099843;28;20242;-80
2024/02/19 08:30:25;;;;;;;1.90;1.80;;;;;;;8.02;100.00;101102.22;5094705;28;20246;-79
2024/02/19 08:32:52;;;;;;;2.17;1.97;;;;;;;8.12;100.00;101096.16;5093712;28;20235;-79
2024/02/19 08:35:18;;;;;;;2.60;2.13;;;;;;;8.14;100.00;101102.22;5093992;28;20719;-80
2024/02/19 08:37:45;;;;;;;2.63;2.10;;;;;;;8.04;100.00;101115.22;5093831;28;20215;-79
2024/02/19 08:40:11;;;;;;;3.73;2.47;;;;;;;8.12;100.00;101109.16;5093977;28;20205;-79
2024/02/19 08:42:40;;;;;;;2.73;2.53;;;;;;;8.12;100.00;101118.72;5094848;28;20219;-79
2024/02/19 08:45:09;;;;;;;3.03;2.70;;;;;;;8.13;100.00;101120.47;5093676;28;20718;-79
2024/02/19 08:47:36;;;;;;;3.00;2.70;;;;;;;8.14;100.00;101116.97;5093545;28;20207;-79
2024/02/19 08:50:04;;;;;;;2.73;2.47;;;;;;;8.09;100.00;101127.38;5093367;28;20224;-76
2024/02/19 08:52:30;;;;;;;3.03;2.77;;;;;;;8.27;100.00;101133.50;5092989;28;20238;-77
2024/02/19 08:54:57;;;;;;;2.60;2.40;;;;;;;8.34;100.00;101141.31;5091790;28;20261;-77
2024/02/19 08:57:23;;;;;;;3.40;3.10;;;;;;;8.56;100.00;101159.56;5091553;28;20439;-76
2024/02/19 08:59:49;;;;;;;2.53;2.33;;;;;;;8.15;100.00;101160.34;5091271;28;20253;-75
2024/02/19 09:02:17;;;;;;;3.33;2.57;;;;;;;8.35;100.00;101149.97;5090606;28;20200;-76
2024/02/19 09:04:44;;;;;;;2.17;1.97;;;;;;;8.06;100.00;101157.69;5091335;28;20269;-75
2024/02/19 09:07:12;;;;;;;3.40;2.10;;;;;;;8.14;100.00;101149.03;5088438;28;20231;-75
2024/02/19 09:09:39;;;;;;;2.43;2.03;;;;;;;8.20;100.00;101129.13;5084955;28;20223;-75
2024/02/19 09:12:05;;;;;;;2.70;2.20;;;;;;;8.42;100.00;101119.66;5090873;28;20686;-75
2024/02/19 09:14:32;;;;;;;3.50;2.60;;;;;;;8.13;100.00;101131.72;5091273;28;20204;-75
2024/02/19 09:16:58;;;;;;;2.50;2.30;;;;;;;8.43;100.00;101126.59;5090320;28;20212;-76
2024/02/19 09:19:26;;;;;;;2.63;2.17;;;;;;;8.45;100.00;101135.28;5091039;28;20660;-76
2024/02/19 09:21:52;;;;;;;2.67;2.07;;;;;;;8.61;100.00;101143.97;5090608;28;20634;-75
2024/02/19 09:24:18;;;;;;;2.70;2.50;;;;;;;8.62;100.00;101164.78;5089174;28;20224;-77
2024/02/19 09:26:45;;;;;;;2.10;1.60;;;;;;;8.51;100.00;101179.50;5094822;28;20273;-76
2024/02/19 09:29:11;;;;;;;3.40;1.60;;;;;;;8.60;100.00;101189.06;5087224;28;20281;-76
2024/02/19 09:31:38;;;;;;;2.37;2.13;;;;;;;8.56;100.00;101177.75;5094318;28;20200;-75
2024/02/19 09:34:04;;;;;;;2.67;1.80;;;;;;;8.71;100.00;101185.59;5095019;28;20224;-77
2024/02/19 09:36:32;;;;;;;1.93;1.70;;;;;;;8.77;100.00;101191.69;5094454;28;20295;-76
2024/02/19 09:38:58;;;;;;;2.47;1.40;;;;;;;8.65;100.00;101214.22;5095029;28;20208;-75
2024/02/19 09:41:24;;;;;;;2.00;1.80;;;;;;;8.85;100.00;101229.84;5094649;28;20659;-76
2024/02/19 09:43:51;;;;;;;3.07;1.40;;;;;;;9.02;100.00;101237.69;5086578;28;20235;-77
2024/02/19 09:46:21;;;;;;;3.07;1.37;;;;;;;9.01;100.00;101245.50;5094295;28;20295;-77
2024/02/19 09:48:49;;;;;;;2.87;1.63;;;;;;;9.22;100.00;101275.91;5092596;28;20224;-76
2024/02/19 09:51:17;;;;;;;3.70;1.40;;;;;;;9.25;100.00;101283.69;5094203;28;20200;-76
2024/02/19 09:53:45;;;;;;;2.78;1.90;;;;;;;9.44;100.00;101297.63;5094001;28;20512;-76
2024/02/19 09:56:17;;;;;;;3.07;1.57;;;;;;;9.39;100.00;101321.03;5093963;28;20208;-77
2024/02/19 09:58:43;;;;;;;1.87;1.20;;;;;;;9.23;100.00;101356.63;5093975;28;20201;-76
2024/02/19 10:01:10;;;;;;;2.10;1.00;;;;;;;9.21;99.15;101368.78;5093899;28;20245;-76
2024/02/19 10:03:36;;;;;;;2.03;1.50;;;;;;;9.38;99.71;101371.44;5094073;28;20220;-76
2024/02/19 10:06:03;;;;;;;3.13;1.10;;;;;;;9.39;100.00;101362.72;5094090;28;20273;-76
2024/02/19 10:08:30;;;;;;;1.50;1.00;;;;;;;9.70;99.25;101365.38;5094147;28;20283;-77
2024/02/19 10:11:00;;;;;;;5.20;1.10;;;;;;;9.42;98.81;101393.16;5093750;28;20670;-77
2024/02/19 10:13:27;;;;;;;2.87;1.17;;;;;;;9.60;99.20;101384.50;5087489;28;20255;-78
2024/02/19 10:15:53;;;;;;;0.93;0.87;;;;;;;9.79;99.19;101391.44;5095054;28;20204;-77
2024/02/19 10:18:21;;;;;;;1.57;1.00;;;;;;;9.80;98.25;101392.31;5094037;28;20265;-78
2024/02/19 10:20:50;;;;;;;1.53;1.07;;;;;;;9.95;96.99;101415.78;5094310;28;20743;-77
2024/02/19 10:23:17;;;;;;;1.57;0.83;;;;;;;9.79;93.74;101459.25;5094015;28;20734;-77
2024/02/19 10:25:44;;;;;;;2.00;1.20;;;;;;;9.99;91.96;101508.81;5093778;28;20208;-77
2024/02/19 10:28:12;;;;;;;2.30;0.70;;;;;;;10.18;93.09;101512.25;5094619;28;20788;-78
2024/02/19 10:30:39;;;;;;;3.47;1.30;;;;;;;10.18;91.90;101517.47;5094355;28;20257;-78
2024/02/19 10:33:06;;;;;;;2.57;1.30;;;;;;;10.40;92.57;101530.56;5092362;28;20236;-76
2024/02/19 10:35:33;;;;;;;2.13;1.20;;;;;;;10.44;91.73;101540.13;5087135;28;20200;-77
2024/02/19 10:38:00;;;;;;;0.87;0.80;;;;;;;10.47;90.81;101561.03;5093822;28;20606;-77
2024/02/19 10:40:27;;;;;;;1.50;1.20;;;;;;;10.49;91.19;101564.50;5093336;28;20552;-77
2024/02/19 10:42:54;;;;;;;3.10;1.73;;;;;;;10.57;92.22;101548.84;5094188;28;20277;-77
2024/02/19 10:45:24;;;;;;;1.50;1.20;;;;;;;10.55;90.94;101566.25;5096316;28;20273;-77
2024/02/19 10:47:51;;;;;;;2.17;1.50;;;;;;;10.47;92.44;101551.44;5092896;28;20200;-77
2024/02/19 10:50:19;;;;;;;3.00;2.00;;;;;;;10.23;91.69;101536.63;5094037;28;20694;-77
2024/02/19 10:52:46;;;;;;;2.37;2.00;;;;;;;10.23;89.40;101567.94;5093655;28;20311;-78
2024/02/19 10:55:12;;;;;;;4.53;1.30;;;;;;;10.51;90.14;101586.25;5093497;28;20211;-77
2024/02/19 10:57:45;;;;;;;4.20;1.77;;;;;;;10.26;91.29;101559.25;5093175;28;20569;-78
2024/02/19 11:00:13;;;;;;;2.27;1.20;;;;;;;10.30;90.73;101555.78;5092248;28;20208;-79
2024/02/19 11:02:41;;;;;;;3.07;1.40;;;;;;;10.08;90.72;101544.44;5093162;28;20224;-77
2024/02/19 11:05:09;;;;;;;3.73;1.53;;;;;;;9.98;91.23;101551.38;5093838;28;20257;-77
2024/02/19 11:07:36;;;;;;;3.17;1.80;;;;;;;9.97;92.76;101518.38;5093370;28;20211;-77
2024/02/19 11:10:04;;;;;;;3.70;1.50;;;;;;;10.08;92.02;101520.97;5093404;28;20273;-77
2024/02/19 11:12:31;;;;;;;2.37;1.20;;;;;;;10.15;92.40;101504.47;5085199;28;20231;-77
2024/02/19 11:14:57;;;;;;;2.53;1.20;;;;;;;10.16;91.98;101516.63;5093718;28;20204;-77
2024/02/19 11:17:24;;;;;;;4.17;1.40;;;;;;;10.39;90.20;101531.44;5091783;28;20612;-76
2024/02/19 11:19:53;;;;;;;1.70;1.37;;;;;;;10.47;90.25;101533.16;5092902;28;20731;-76
2024/02/19 11:22:29;;;;;;;2.20;1.20;;;;;;;10.40;88.28;101572.31;5092580;28;20210;-76
2024/02/19 11:24:55;;;;;;;3.07;1.30;;;;;;;10.65;88.76;101571.44;5092914;28;20575;-76